Time;durP1;ratioP1;P1;durP2;ratioP2;P2;SDS_P1;SDS_P2;PMS_P1;PMS_P2;Temp;Humidity;BMP_temperature;BMP_pressure;BME280_temperature;BME280_humidity;BME280_pressure;Samples;Min_cycle;Max_cycle;Signal;HPM_P1;HPM_P2
2022/04/19 00:00:52;;;;;;;8.60;4.53;;;;;;;5.82;45.80;99989.00;5052630;28;20033;-52
2022/04/19 00:03:18;;;;;;;8.85;4.70;;;;;;;5.44;46.32;99952.22;5052562;28;20036;-56
2022/04/19 00:05:45;;;;;;;7.40;3.40;;;;;;;5.82;45.20;100002.28;5052349;28;20032;-56
2022/04/19 00:08:13;;;;;;;9.35;4.50;;;;;;;5.77;45.97;100007.00;5052882;28;20045;-55
2022/04/19 00:10:40;;;;;;;7.93;4.47;;;;;;;5.79;45.59;100012.22;5052580;28;20059;-53
2022/04/19 00:13:07;;;;;;;8.30;3.95;;;;;;;5.81;45.32;100000.56;5050633;28;20025;-54
2022/04/19 00:15:33;;;;;;;9.70;4.00;;;;;;;5.94;45.52;100013.13;5050829;28;20162;-55
2022/04/19 00:18:00;;;;;;;7.53;4.20;;;;;;;5.82;46.15;100007.59;5050938;28;20473;-56
2022/04/19 00:20:28;;;;;;;9.05;4.15;;;;;;;5.75;46.28;100003.56;5052067;28;20109;-48
2022/04/19 00:22:55;;;;;;;6.07;3.28;;;;;;;5.95;46.00;100001.56;5052194;28;20045;-53
2022/04/19 00:25:21;;;;;;;10.02;3.88;;;;;;;5.53;46.39;99958.81;5052276;28;20041;-56
2022/04/19 00:27:47;;;;;;;9.45;3.90;;;;;;;5.79;46.25;99993.63;5052142;28;20028;-53
2022/04/19 00:30:13;;;;;;;6.82;3.80;;;;;;;5.57;47.15;99994.88;5052436;28;20052;-56
2022/04/19 00:32:39;;;;;;;5.95;3.97;;;;;;;5.57;46.58;99994.88;5051821;28;20029;-55
2022/04/19 00:35:07;;;;;;;5.47;3.67;;;;;;;5.58;46.62;99992.13;5052256;28;20090;-54
2022/04/19 00:37:33;;;;;;;9.50;4.40;;;;;;;5.64;46.53;99990.06;5051778;28;20025;-56
2022/04/19 00:40:00;;;;;;;8.32;3.80;;;;;;;5.64;46.54;99990.91;5051661;28;20067;-53
2022/04/19 00:42:30;;;;;;;6.22;3.95;;;;;;;5.73;46.26;99989.53;5051750;28;20157;-56
2022/04/19 00:44:56;;;;;;;8.63;4.10;;;;;;;5.21;45.94;99913.72;5052035;28;20096;-57
2022/04/19 00:47:22;;;;;;;5.75;3.92;;;;;;;5.75;46.73;99984.97;5051509;28;20075;-55
2022/04/19 00:49:48;;;;;;;7.70;3.90;;;;;;;5.95;46.37;99985.59;5051553;28;20126;-57
2022/04/19 00:52:14;;;;;;;4.40;3.38;;;;;;;5.85;46.37;99985.28;5051901;28;20417;-56
2022/04/19 00:54:41;;;;;;;6.97;3.53;;;;;;;5.70;46.65;99981.72;5051712;28;20028;-49
2022/04/19 00:57:07;;;;;;;4.63;2.95;;;;;;;5.77;46.71;99998.19;5051478;28;20048;-54
2022/04/19 00:59:33;;;;;;;7.57;3.60;;;;;;;5.67;47.10;99984.56;5051307;28;20107;-56
2022/04/19 01:02:00;;;;;;;9.40;3.65;;;;;;;5.57;46.57;99941.75;5051342;28;20426;-53
2022/04/19 01:04:25;;;;;;;6.47;3.55;;;;;;;5.71;46.87;99979.00;5051686;28;20036;-57
2022/04/19 01:06:51;;;;;;;6.07;4.30;;;;;;;5.67;47.62;99990.75;5051438;28;20032;-58
2022/04/19 01:09:17;;;;;;;7.15;4.20;;;;;;;5.60;47.46;99984.06;5051034;28;20036;-56
2022/04/19 01:14:28;;;;;;;7.80;4.03;;;;;;;5.50;47.85;99978.41;5051373;28;20056;-55
2022/04/19 01:16:55;;;;;;;7.10;3.95;;;;;;;5.52;47.84;99989.81;5051271;28;20040;-57
2022/04/19 01:19:21;;;;;;;5.10;3.38;;;;;;;5.42;48.43;99975.34;5051024;28;20536;-54
2022/04/19 01:21:54;;;;;;;6.28;3.72;;;;;;;5.43;47.76;99929.25;5051620;28;20069;-57
2022/04/19 01:24:22;;;;;;;5.32;3.65;;;;;;;5.56;47.93;99977.22;5051310;28;20036;-55
2022/04/19 01:26:51;;;;;;;6.63;3.42;;;;;;;5.51;47.45;99958.03;5049547;28;20100;-53
2022/04/19 01:29:17;;;;;;;7.38;3.70;;;;;;;5.66;47.62;99978.38;5051075;28;20055;-54
2022/04/19 01:31:44;;;;;;;5.93;3.72;;;;;;;5.70;47.72;99984.38;5050979;28;20457;-52
2022/04/19 01:34:10;;;;;;;8.43;4.03;;;;;;;5.58;47.83;99975.31;5050427;28;20052;-57
2022/04/19 01:36:37;;;;;;;8.93;3.50;;;;;;;5.65;48.23;99976.66;5050718;28;20096;-54
2022/04/19 01:39:07;;;;;;;6.15;3.60;;;;;;;5.59;48.08;99972.59;5050769;28;20120;-51
2022/04/19 01:41:34;;;;;;;6.93;3.50;;;;;;;5.47;48.81;99978.59;5050770;28;20111;-56
2022/04/19 01:44:00;;;;;;;8.63;3.72;;;;;;;5.41;48.98;99970.97;5050564;28;20029;-56
2022/04/19 01:46:27;;;;;;;6.57;3.92;;;;;;;4.92;49.70;99930.34;5050448;28;20385;-52
2022/04/19 01:48:56;;;;;;;6.40;3.90;;;;;;;5.14;49.83;99977.75;5050686;28;20025;-53
2022/04/19 01:51:22;;;;;;;6.35;3.67;;;;;;;5.29;49.80;99961.91;5049232;28;20043;-56
2022/04/19 01:53:51;;;;;;;5.28;3.78;;;;;;;5.45;49.19;99961.91;5050664;28;20032;-52
2022/04/19 01:56:17;;;;;;;10.20;3.92;;;;;;;5.34;49.92;99959.00;5051167;28;20037;-53
2022/04/19 01:58:43;;;;;;;7.25;3.75;;;;;;;5.30;49.76;99961.84;5049310;28;20098;-54
2022/04/19 02:01:09;;;;;;;6.40;3.40;;;;;;;5.27;50.26;99964.66;5050303;28;20075;-55
2022/04/19 02:03:35;;;;;;;6.72;4.38;;;;;;;4.85;50.83;99926.31;5050577;28;20040;-54
2022/04/19 02:06:01;;;;;;;5.28;3.15;;;;;;;5.32;50.63;99970.56;5049151;28;20125;-53
2022/04/19 02:08:27;;;;;;;8.25;4.47;;;;;;;5.23;50.96;99970.22;5049025;28;20059;-56
2022/04/19 02:10:52;;;;;;;9.13;4.10;;;;;;;5.09;51.41;99969.19;5050340;28;20469;-57
2022/04/19 02:13:19;;;;;;;8.98;4.53;;;;;;;5.14;51.22;99975.09;5051091;28;20033;-55
2022/04/19 02:15:46;;;;;;;7.63;4.15;;;;;;;4.98;51.37;99975.09;5048897;28;20419;-56
2022/04/19 02:18:12;;;;;;;7.38;4.20;;;;;;;5.05;51.38;99972.09;5048931;28;20086;-54
2022/04/19 02:20:37;;;;;;;11.05;4.90;;;;;;;4.96;51.26;99984.94;5051737;28;20033;-56
2022/04/19 02:23:03;;;;;;;8.68;4.70;;;;;;;5.03;51.21;99981.00;5054636;28;20052;-55
2022/04/19 02:25:29;;;;;;;8.40;3.80;;;;;;;4.58;51.83;99942.75;5054389;28;20040;-56
2022/04/19 02:27:55;;;;;;;7.63;4.20;;;;;;;4.81;51.76;99972.50;5054132;28;20040;-54
2022/04/19 02:30:21;;;;;;;10.93;4.95;;;;;;;4.71;51.77;99954.44;5054837;28;20037;-54
2022/04/19 02:32:48;;;;;;;9.38;4.70;;;;;;;4.87;51.86;99974.84;5053243;28;20103;-56
2022/04/19 02:35:18;;;;;;;8.68;5.10;;;;;;;4.87;52.02;99980.16;5053972;28;20032;-53
2022/04/19 02:37:54;;;;;;;9.10;4.82;;;;;;;4.88;52.23;99985.34;5054138;28;20021;-52
2022/04/19 02:40:22;;;;;;;6.38;4.20;;;;;;;4.80;52.36;99986.69;5053561;28;20037;-56
2022/04/19 02:42:49;;;;;;;7.35;4.63;;;;;;;4.91;52.52;99996.72;5054552;28;20108;-53
2022/04/19 02:45:15;;;;;;;7.85;3.95;;;;;;;4.97;52.24;99981.34;5053948;28;20491;-54
2022/04/19 02:47:43;;;;;;;8.77;4.65;;;;;;;5.08;52.05;99998.50;5052730;28;20037;-57
2022/04/19 02:50:09;;;;;;;9.45;5.05;;;;;;;5.05;52.20;100006.59;5054182;28;20025;-56
2022/04/19 02:52:34;;;;;;;8.23;5.10;;;;;;;5.09;52.71;99998.38;5053965;28;20132;-56
2022/04/19 02:55:00;;;;;;;9.88;4.78;;;;;;;5.07;52.92;100002.09;5053821;28;20032;-54
2022/04/19 02:57:26;;;;;;;8.85;4.25;;;;;;;5.15;52.31;99999.84;5052264;28;20323;-55
2022/04/19 02:59:53;;;;;;;6.80;4.03;;;;;;;5.35;51.63;100011.16;5054477;28;20032;-52
2022/04/19 03:02:19;;;;;;;7.97;4.45;;;;;;;5.38;51.95;100013.66;5054380;28;20079;-50
2022/04/19 03:04:45;;;;;;;9.48;4.75;;;;;;;5.51;51.31;100014.66;5053371;28;20433;-56
2022/04/19 03:07:14;;;;;;;7.80;4.63;;;;;;;5.45;51.77;100017.66;5053716;28;20078;-56
2022/04/19 03:09:43;;;;;;;8.60;4.32;;;;;;;5.53;51.63;100019.88;5053963;28;20052;-57
2022/04/19 03:12:15;;;;;;;2.88;2.20;;;;;;;5.77;50.60;100017.63;5053736;28;20069;-55
2022/04/19 03:14:41;;;;;;;10.30;3.85;;;;;;;5.72;50.82;100019.69;5053405;28;20021;-52
2022/04/19 03:17:07;;;;;;;6.47;3.97;;;;;;;5.81;50.86;100020.97;5053119;28;20028;-56
2022/04/19 03:19:33;;;;;;;6.57;3.85;;;;;;;5.78;50.55;100019.31;5053890;28;20037;-57
2022/04/19 03:21:58;;;;;;;6.32;3.72;;;;;;;6.00;50.35;100037.56;5053225;28;20035;-49
2022/04/19 03:29:52;;;;;;;7.18;3.60;;;;;;;6.34;49.47;100024.13;5053191;28;20102;-51
2022/04/19 03:32:19;;;;;;;8.13;3.85;;;;;;;6.23;48.95;99986.66;5051373;28;20032;-52
2022/04/19 03:34:50;;;;;;;8.10;3.95;;;;;;;6.74;48.64;100032.31;5052805;28;20029;-51
2022/04/19 03:37:15;;;;;;;4.82;3.08;;;;;;;7.23;47.55;100035.53;5052885;28;20457;-54
2022/04/19 03:39:41;;;;;;;5.90;3.30;;;;;;;8.05;45.17;100026.72;5052721;28;20048;-56
2022/04/19 03:42:08;;;;;;;4.72;3.30;;;;;;;8.73;43.81;100032.84;5052829;28;20526;-56
2022/04/19 03:44:34;;;;;;;7.65;3.58;;;;;;;9.20;42.89;100040.28;5052876;28;20029;-56
2022/04/19 03:47:09;;;;;;;7.90;3.42;;;;;;;9.33;42.11;100033.06;5052905;28;20037;-54
2022/04/19 03:49:38;;;;;;;8.05;3.15;;;;;;;9.53;41.78;100030.75;5052785;28;20522;-49
2022/04/19 03:52:05;;;;;;;5.75;3.20;;;;;;;9.74;41.27;100035.50;5052977;28;20025;-53
2022/04/19 03:54:34;;;;;;;5.50;3.30;;;;;;;9.56;41.32;100035.03;5052414;28;20456;-50
2022/04/19 03:57:07;;;;;;;6.32;3.30;;;;;;;8.82;42.70;100011.78;5052575;28;20090;-55
2022/04/19 03:59:33;;;;;;;3.72;2.83;;;;;;;8.67;43.69;100054.59;5053024;28;20037;-55
2022/04/19 04:01:59;;;;;;;5.68;3.35;;;;;;;8.45;44.03;100033.84;5052539;28;20384;-56
2022/04/19 04:04:30;;;;;;;5.45;2.90;;;;;;;8.18;45.13;100027.59;5052600;28;20045;-54
2022/04/19 04:06:57;;;;;;;3.83;3.13;;;;;;;8.18;45.06;100032.94;5053172;28;20029;-50
2022/04/19 04:09:24;;;;;;;8.40;3.60;;;;;;;8.65;44.44;100037.00;5052982;28;20148;-56
2022/04/19 04:11:50;;;;;;;10.30;3.60;;;;;;;10.08;41.41;99997.34;5052481;28;20056;-57
2022/04/19 04:14:15;;;;;;;4.97;3.40;;;;;;;11.98;37.48;100028.88;5052242;28;20087;-53
2022/04/19 04:16:41;;;;;;;7.22;3.60;;;;;;;13.52;34.31;100026.53;5052403;28;20037;-55
2022/04/19 04:19:06;;;;;;;5.25;2.95;;;;;;;14.56;32.18;100017.88;5052004;28;20040;-55
2022/04/19 04:21:32;;;;;;;7.70;3.35;;;;;;;14.53;31.85;100020.03;5051685;28;20520;-60
2022/04/19 04:23:57;;;;;;;4.97;3.20;;;;;;;14.99;31.18;100015.66;5036639;28;20021;-57
2022/04/19 04:26:23;;;;;;;4.90;3.20;;;;;;;16.02;29.74;100017.31;5032673;28;20091;-61
2022/04/19 04:28:48;;;;;;;4.70;3.15;;;;;;;16.96;28.13;100024.94;5031932;28;20037;-60
2022/04/19 04:31:14;;;;;;;7.28;3.10;;;;;;;17.41;27.16;99989.66;5030686;28;20078;-60
2022/04/19 04:33:39;;;;;;;7.35;3.00;;;;;;;17.71;26.73;99987.34;5032026;28;20032;-60
2022/04/19 04:36:05;;;;;;;7.70;2.78;;;;;;;18.30;26.27;100024.31;5032029;28;20029;-62
2022/04/19 04:38:30;;;;;;;4.18;2.88;;;;;;;18.38;26.21;100024.34;5031725;28;20048;-62
2022/04/19 04:40:56;;;;;;;6.85;3.00;;;;;;;17.43;26.59;99998.47;5031871;28;20517;-60
2022/04/19 04:43:21;;;;;;;5.32;2.80;;;;;;;16.87;27.86;100024.03;5031449;28;20034;-62
2022/04/19 04:49:35;;;;;;;3.65;2.63;;;;;;;16.69;28.50;100024.13;5014334;28;20035;-61
2022/04/19 04:51:16;;;;;;;10.05;2.80;;;;;;;15.98;29.28;100025.91;5031592;28;20045;-61
2022/04/19 04:53:42;;;;;;;6.95;2.65;;;;;;;15.55;30.34;100028.28;5031755;28;20087;-59
2022/04/19 04:56:07;;;;;;;3.70;2.00;;;;;;;15.91;29.96;100025.69;5030442;28;20469;-60
2022/04/19 04:58:32;;;;;;;4.45;2.30;;;;;;;17.01;28.66;100027.22;5029968;28;20043;-60
2022/04/19 05:00:58;;;;;;;6.43;2.47;;;;;;;17.71;27.36;100023.38;5031602;28;20037;-59
2022/04/19 05:03:23;;;;;;;5.28;2.13;;;;;;;18.12;26.95;100030.78;5031492;28;20484;-61
2022/04/19 05:05:49;;;;;;;3.28;2.35;;;;;;;18.34;26.32;100017.56;5031919;28;20064;-60
2022/04/19 05:08:18;;;;;;;7.25;2.85;;;;;;;18.29;26.62;100014.50;5030067;28;20040;-57
2022/04/19 05:10:43;;;;;;;6.05;2.30;;;;;;;18.65;25.95;100009.56;5031100;28;20617;-61
2022/04/19 05:13:09;;;;;;;4.32;2.50;;;;;;;18.60;26.23;100013.81;5030096;28;20053;-60
2022/04/19 05:15:35;;;;;;;8.02;2.40;;;;;;;18.02;26.74;99987.59;5031486;28;20039;-59
2022/04/19 05:18:01;;;;;;;5.57;2.50;;;;;;;17.32;27.80;100038.31;5031014;28;20025;-62
2022/04/19 05:20:26;;;;;;;6.80;2.70;;;;;;;16.11;29.75;100031.75;5031577;28;20087;-59
2022/04/19 05:22:52;;;;;;;3.97;2.60;;;;;;;15.23;31.17;100030.47;5030995;28;20029;-61
2022/04/19 05:25:17;;;;;;;7.22;2.75;;;;;;;14.14;33.03;100027.16;5030717;28;20033;-59
2022/04/19 05:27:43;;;;;;;8.30;2.95;;;;;;;13.33;34.78;100037.06;5030523;28;20175;-60
2022/04/19 05:30:09;;;;;;;6.43;2.15;;;;;;;12.97;36.04;100050.06;5029391;28;20045;-60
2022/04/19 05:32:34;;;;;;;4.53;2.03;;;;;;;12.03;38.33;100053.50;5030746;28;20033;-60
2022/04/19 05:35:00;;;;;;;6.82;2.10;;;;;;;11.38;40.03;100058.78;5030821;28;20055;-59
2022/04/19 05:37:26;;;;;;;4.18;1.98;;;;;;;10.95;40.93;100029.06;5030707;28;20060;-61
2022/04/19 05:39:51;;;;;;;6.07;1.90;;;;;;;10.39;42.07;100000.34;5030407;28;21057;-62
2022/04/19 05:42:17;;;;;;;6.05;2.03;;;;;;;10.40;42.88;100021.69;5030450;28;20426;-61
2022/04/19 05:44:43;;;;;;;3.20;2.08;;;;;;;10.13;43.54;100041.53;5030102;28;20052;-61
2022/04/19 05:47:09;;;;;;;2.83;2.10;;;;;;;9.95;43.82;100037.56;5029586;28;20041;-61
2022/04/19 05:49:35;;;;;;;3.55;2.15;;;;;;;9.88;44.07;100019.28;5029629;28;20037;-62
2022/04/19 05:52:01;;;;;;;9.50;2.83;;;;;;;9.89;44.38;100022.81;5029871;28;20079;-61
2022/04/19 05:54:27;;;;;;;6.65;2.50;;;;;;;10.20;43.31;100018.69;5030179;28;20064;-63
2022/04/19 05:56:53;;;;;;;6.43;2.33;;;;;;;9.95;44.25;100016.16;5030684;28;20060;-63
2022/04/19 05:59:19;;;;;;;3.28;1.92;;;;;;;9.86;44.02;100023.03;5030357;28;20029;-61
2022/04/19 06:07:12;;;;;;;7.80;2.30;;;;;;;9.79;43.78;100017.28;5030248;28;20037;-59
2022/04/19 06:21:59;;;;;;;8.35;3.05;;;;;;;10.00;44.94;100032.72;5141937;27;20828;-66
2022/04/19 06:24:25;;;;;;;3.65;2.45;;;;;;;10.42;43.61;100026.91;5108562;28;20089;-65
2022/04/19 06:26:51;;;;;;;5.10;2.33;;;;;;;10.58;42.96;100013.19;5108266;27;20537;-66
2022/04/19 06:29:17;;;;;;;5.70;2.40;;;;;;;11.03;42.15;100028.47;5108543;28;20054;-63
2022/04/19 06:31:46;;;;;;;4.90;2.60;;;;;;;11.13;41.81;100012.50;5098483;28;20023;-68
2022/04/19 06:34:11;;;;;;;5.65;2.38;;;;;;;11.16;41.80;100015.78;5104339;28;20032;-68
2022/04/19 06:36:37;;;;;;;8.77;2.97;;;;;;;11.44;40.70;100012.69;5103784;28;20466;-65
2022/04/19 06:39:03;;;;;;;5.03;2.10;;;;;;;11.86;39.85;100018.19;5104058;28;20027;-64
2022/04/19 06:41:29;;;;;;;5.07;2.35;;;;;;;11.77;39.98;100030.53;5101881;28;20039;-67
2022/04/19 06:43:57;;;;;;;3.67;2.30;;;;;;;11.72;40.00;100000.56;5098443;28;20033;-68
2022/04/19 06:46:25;;;;;;;4.95;1.90;;;;;;;12.16;39.18;100029.19;5101306;28;20414;-67
2022/04/19 06:48:53;;;;;;;4.43;1.98;;;;;;;12.10;39.70;100025.22;5086943;28;20056;-65
2022/04/19 06:51:20;;;;;;;4.50;2.35;;;;;;;12.55;38.65;100029.47;5087741;28;20032;-67
2022/04/19 06:53:46;;;;;;;4.43;1.92;;;;;;;13.16;37.22;100037.69;5087008;28;20357;-65
2022/04/19 06:56:11;;;;;;;5.22;1.95;;;;;;;13.18;37.22;100035.72;5095168;28;20107;-64
2022/04/19 06:58:39;;;;;;;5.10;2.25;;;;;;;13.33;37.02;100029.00;5107604;28;20047;-64
2022/04/19 07:01:05;;;;;;;5.90;2.00;;;;;;;13.73;35.99;100039.84;5107619;28;20136;-66
2022/04/19 07:03:31;;;;;;;7.93;2.08;;;;;;;13.34;36.32;100037.91;5107738;28;20024;-65
2022/04/19 07:05:57;;;;;;;6.35;2.40;;;;;;;13.21;37.02;100030.94;5107399;28;20468;-64
2022/04/19 07:08:23;;;;;;;7.70;2.50;;;;;;;13.46;36.50;100023.41;5107780;28;20071;-66
2022/04/19 07:10:48;;;;;;;6.63;2.20;;;;;;;13.92;35.95;100020.22;5107206;28;20479;-63
2022/04/19 07:13:14;;;;;;;7.03;2.40;;;;;;;14.55;34.93;100020.72;5101258;28;20039;-65
2022/04/19 07:15:39;;;;;;;7.47;2.85;;;;;;;14.80;34.27;100031.91;5097479;28;20028;-62
2022/04/19 07:18:05;;;;;;;5.00;2.30;;;;;;;14.88;33.73;100030.19;5099035;28;20051;-65
2022/04/19 07:28:43;;;;;;;6.40;1.98;;;;;;;13.62;36.41;100033.63;5073850;28;20028;-63
2022/04/19 07:31:09;;;;;;;6.57;2.00;;;;;;;13.60;36.63;100030.22;5081175;28;20059;-64
2022/04/19 07:33:39;;;;;;;5.03;2.17;;;;;;;14.30;35.65;100028.41;5092747;28;20058;-63
2022/04/19 07:36:05;;;;;;;6.32;1.90;;;;;;;15.27;33.59;100034.56;5092936;28;20024;-63
2022/04/19 07:38:31;;;;;;;5.05;2.28;;;;;;;16.54;31.70;100028.41;5086701;28;20458;-64
2022/04/19 07:40:57;;;;;;;5.20;1.90;;;;;;;17.47;29.70;100024.19;5088473;28;20039;-65
2022/04/19 07:43:23;;;;;;;4.22;2.25;;;;;;;18.47;28.15;100028.72;5093612;28;20063;-67
2022/04/19 07:45:49;;;;;;;4.45;2.17;;;;;;;19.46;26.78;100019.50;5093480;28;20492;-66
2022/04/19 07:48:15;;;;;;;2.55;2.13;;;;;;;19.29;26.77;100016.03;5093841;28;20020;-66
2022/04/19 07:50:42;;;;;;;4.80;2.45;;;;;;;18.55;27.94;100019.75;5093677;28;20028;-66
2022/04/19 07:53:09;;;;;;;5.70;2.08;;;;;;;17.44;29.73;100030.75;5093010;28;20039;-63
2022/04/19 07:55:34;;;;;;;3.72;2.03;;;;;;;16.47;31.16;100031.72;5092828;28;20024;-65
2022/04/19 07:58:00;;;;;;;10.70;2.22;;;;;;;15.71;32.44;100027.66;5092861;28;20040;-63
2022/04/19 08:00:27;;;;;;;7.45;2.30;;;;;;;15.05;34.04;100055.50;5092728;28;20388;-64
2022/04/19 08:02:55;;;;;;;2.45;1.70;;;;;;;15.01;34.38;100048.72;5080151;28;20400;-62
2022/04/19 08:05:21;;;;;;;3.53;2.13;;;;;;;14.18;35.99;100044.72;5088163;28;20032;-62
2022/04/19 08:07:48;;;;;;;7.30;2.20;;;;;;;13.63;37.39;100050.63;5092578;28;20205;-64
2022/04/19 08:10:14;;;;;;;4.03;2.20;;;;;;;13.20;38.30;100039.13;5092767;28;20027;-63
2022/04/19 08:12:40;;;;;;;7.05;2.10;;;;;;;12.98;38.99;100043.69;5081967;28;20036;-63
2022/04/19 08:15:06;;;;;;;5.03;2.22;;;;;;;12.91;39.21;100042.53;5080968;28;20046;-63
2022/04/19 08:17:32;;;;;;;5.32;2.25;;;;;;;12.87;39.37;100049.16;5092101;28;20119;-64
2022/04/19 08:19:58;;;;;;;7.45;2.65;;;;;;;12.65;40.16;100045.66;5092983;28;20089;-62
2022/04/19 08:22:24;;;;;;;3.90;2.15;;;;;;;12.48;40.36;100064.06;5091545;28;20028;-65
2022/04/19 08:24:50;;;;;;;4.05;2.40;;;;;;;12.28;40.77;100043.41;5091428;28;20047;-64
2022/04/19 08:27:17;;;;;;;5.82;2.30;;;;;;;12.40;41.27;100058.50;5092905;28;20119;-64
2022/04/19 08:29:45;;;;;;;6.38;2.05;;;;;;;12.35;41.44;100050.81;5092850;28;20032;-64
2022/04/19 08:32:11;;;;;;;2.75;2.10;;;;;;;12.12;42.13;100039.34;5091868;28;20452;-62
2022/04/19 08:34:38;;;;;;;3.35;1.92;;;;;;;12.18;42.23;100029.94;5091884;28;20832;-64
2022/04/19 08:37:04;;;;;;;2.55;1.83;;;;;;;12.23;41.59;100022.34;5092509;28;20453;-63
2022/04/19 08:39:29;;;;;;;4.65;1.88;;;;;;;12.44;41.58;100038.44;5091455;28;22398;-62
2022/04/19 08:41:55;;;;;;;6.70;2.47;;;;;;;12.35;41.63;100041.94;5092203;28;20047;-62
2022/04/19 08:44:20;;;;;;;4.93;2.70;;;;;;;12.52;41.69;100043.16;5092534;28;20034;-64
2022/04/19 08:46:46;;;;;;;6.25;2.20;;;;;;;12.17;42.63;100053.22;5091908;28;20480;-64
2022/04/19 08:49:12;;;;;;;4.03;1.90;;;;;;;12.46;42.00;100039.16;5091795;28;20111;-63
2022/04/19 08:51:40;;;;;;;4.30;2.22;;;;;;;12.14;42.95;100042.75;5092105;28;20864;-63
2022/04/19 08:59:37;;;;;;;2.38;1.88;;;;;;;12.32;42.82;100044.88;5092008;28;20028;-62
2022/04/19 09:02:05;;;;;;;4.95;2.28;;;;;;;12.43;42.08;100006.38;5090809;28;20393;-65
2022/04/19 09:04:30;;;;;;;10.02;2.50;;;;;;;12.38;42.83;100030.91;5092023;28;20039;-61
2022/04/19 09:06:57;;;;;;;4.53;1.98;;;;;;;12.74;41.92;100044.84;5091699;28;20024;-60
2022/04/19 09:09:25;;;;;;;4.88;1.80;;;;;;;12.83;41.67;100047.75;5091659;28;20026;-61
2022/04/19 09:11:53;;;;;;;4.72;2.00;;;;;;;12.93;41.67;100048.63;5091724;28;20535;-61
2022/04/19 09:14:18;;;;;;;6.82;1.80;;;;;;;13.34;40.85;100054.03;5091637;28;20083;-68
2022/04/19 09:16:45;;;;;;;3.67;2.10;;;;;;;13.23;40.70;100038.00;5091538;28;20031;-62
2022/04/19 09:19:26;;;;;;;4.32;2.20;;;;;;;13.42;40.29;100043.47;5090089;28;20093;-61
2022/04/19 09:21:52;;;;;;;7.40;2.20;;;;;;;13.34;40.69;100030.69;5091800;28;20130;-63
2022/04/19 09:24:19;;;;;;;5.22;1.80;;;;;;;13.55;40.33;100037.00;5091559;28;20220;-59
2022/04/19 09:26:46;;;;;;;3.58;2.20;;;;;;;13.54;39.88;100009.25;5090456;28;20036;-60
2022/04/19 09:29:17;;;;;;;2.92;2.30;;;;;;;13.82;39.49;100014.81;5090700;28;20044;-63
2022/04/19 09:31:42;;;;;;;3.67;2.40;;;;;;;14.30;38.67;100023.03;5091265;28;20031;-62
2022/04/19 09:34:08;;;;;;;5.00;2.70;;;;;;;14.43;38.18;100014.66;5091297;28;20035;-63
2022/04/19 09:36:34;;;;;;;3.88;2.33;;;;;;;14.71;37.67;100025.53;5091455;28;20081;-61
2022/04/19 09:38:59;;;;;;;4.63;2.20;;;;;;;14.94;37.13;100023.31;5090495;28;20093;-61
2022/04/19 09:41:32;;;;;;;12.77;2.75;;;;;;;15.24;36.82;100031.31;5091454;28;20405;-61
2022/04/19 09:44:12;;;;;;;4.95;2.55;;;;;;;15.47;36.44;100026.38;5091119;28;20108;-63
2022/04/19 09:46:38;;;;;;;7.60;2.70;;;;;;;15.70;35.78;100020.53;5091071;28;20093;-65
2022/04/19 09:49:04;;;;;;;9.80;2.60;;;;;;;15.88;35.38;100007.91;5090753;28;20461;-64
2022/04/19 09:51:32;;;;;;;7.35;3.20;;;;;;;16.21;34.92;100010.94;5091138;28;20032;-65
2022/04/19 09:53:57;;;;;;;5.15;2.58;;;;;;;16.26;34.97;100001.50;5090947;28;20107;-64
2022/04/19 09:56:23;;;;;;;5.30;2.40;;;;;;;16.07;35.00;99998.84;5090959;28;20128;-63
2022/04/19 09:58:50;;;;;;;4.80;2.13;;;;;;;16.24;34.98;100025.13;5091011;28;20545;-65
2022/04/19 10:09:31;;;;;;;4.75;2.10;;;;;;;15.54;36.56;100040.94;5090901;28;20032;-64
2022/04/19 10:11:57;;;;;;;2.10;1.77;;;;;;;15.29;37.09;100037.09;5091065;28;20046;-63
2022/04/19 10:14:23;;;;;;;3.55;1.70;;;;;;;15.19;37.03;100066.78;5091116;28;20456;-63
2022/04/19 10:16:49;;;;;;;1.90;1.65;;;;;;;14.84;38.03;100042.25;5091060;28;20052;-66
2022/04/19 10:19:16;;;;;;;5.65;1.98;;;;;;;14.82;38.37;100043.38;5080208;28;20357;-64
2022/04/19 10:21:43;;;;;;;5.05;2.08;;;;;;;15.16;37.56;100040.13;5090717;28;20044;-65
2022/04/19 10:24:12;;;;;;;3.38;2.13;;;;;;;15.70;36.60;100044.84;5090377;28;20040;-64
2022/04/19 10:26:43;;;;;;;5.60;2.17;;;;;;;15.99;35.75;100033.00;5090486;28;20051;-67
2022/04/19 10:29:35;;;;;;;4.63;1.95;;;;;;;16.17;35.62;100041.97;5090945;28;20707;-65
2022/04/19 10:32:06;;;;;;;5.05;1.70;;;;;;;15.98;35.55;100039.41;5088901;28;20044;-63
2022/04/19 10:34:36;;;;;;;4.07;1.65;;;;;;;15.59;36.08;100030.53;5090168;28;20036;-63
2022/04/19 10:37:15;;;;;;;9.80;2.40;;;;;;;15.56;36.25;100033.53;5090306;28;20036;-65
2022/04/19 10:40:07;;;;;;;11.10;2.50;;;;;;;15.58;36.50;100031.53;5090106;28;20028;-67
2022/04/19 10:42:33;;;;;;;4.03;2.25;;;;;;;15.57;36.44;100032.53;5089942;28;20050;-67
2022/04/19 10:45:13;;;;;;;8.43;2.25;;;;;;;16.00;35.55;100030.13;5090352;28;20035;-56
2022/04/19 10:47:51;;;;;;;5.25;2.03;;;;;;;16.02;35.52;100021.91;5085252;28;20028;-63
2022/04/19 10:50:32;;;;;;;4.53;2.55;;;;;;;16.16;35.30;100021.38;5069888;28;20063;-62
2022/04/19 10:52:59;;;;;;;5.07;2.10;;;;;;;16.28;34.74;100018.41;5069767;28;20029;-66
2022/04/19 10:55:28;;;;;;;3.17;1.92;;;;;;;16.13;35.03;100016.25;5070164;28;20059;-65
2022/04/19 11:00:41;;;;;;;3.35;1.60;;;;;;;15.67;35.18;100015.44;5094155;28;20036;-63
2022/04/19 11:03:07;;;;;;;2.45;1.65;;;;;;;15.51;35.88;100016.97;5093469;28;20422;-68
2022/04/19 11:05:52;;;;;;;5.32;1.42;;;;;;;15.53;36.06;100017.66;5094007;28;20107;-64
2022/04/19 11:08:26;;;;;;;6.45;1.52;;;;;;;15.57;35.79;100010.97;5094675;28;20039;-66
2022/04/19 11:11:21;;;;;;;4.68;1.50;;;;;;;15.68;35.69;100022.56;5093832;28;20020;-66
2022/04/19 11:14:16;;;;;;;3.33;1.75;;;;;;;15.71;35.62;100004.19;5093820;28;20035;-66
2022/04/19 11:16:42;;;;;;;4.22;1.88;;;;;;;15.57;35.79;100004.72;5093790;28;20039;-63
2022/04/19 11:19:34;;;;;;;7.32;1.80;;;;;;;15.73;35.68;99994.06;5093502;28;20353;-65
2022/04/19 11:22:01;;;;;;;3.13;1.98;;;;;;;15.78;35.72;99989.06;5093122;28;20048;-66
2022/04/19 11:25:02;;;;;;;6.68;1.80;;;;;;;16.23;35.09;99991.84;5094148;28;20028;-67
2022/04/19 11:27:54;;;;;;;4.30;1.58;;;;;;;16.37;34.91;99993.13;5094017;28;20086;-66
2022/04/19 11:30:26;;;;;;;2.03;1.35;;;;;;;16.30;34.73;99992.06;5094479;28;20170;-66
2022/04/19 11:32:53;;;;;;;5.45;1.40;;;;;;;16.15;34.64;99995.31;5093493;28;20032;-59
2022/04/19 11:35:19;;;;;;;4.03;1.27;;;;;;;16.05;34.93;99984.63;5094160;28;20027;-65
2022/04/19 11:37:46;;;;;;;7.80;3.10;;;;;;;15.98;34.79;99982.72;5093960;28;20024;-58
2022/04/19 11:48:47;;;;;;;1.80;1.27;;;;;;;14.91;37.15;99973.28;5093300;28;20024;-63
2022/04/19 11:51:13;;;;;;;3.42;1.20;;;;;;;14.58;37.47;99948.53;5093202;28;20032;-63
2022/04/19 11:53:39;;;;;;;3.20;1.15;;;;;;;14.67;37.09;99967.50;5093504;28;20107;-65
2022/04/19 11:56:06;;;;;;;5.22;1.30;;;;;;;14.60;37.46;99981.59;5093345;28;20165;-64
2022/04/19 11:58:32;;;;;;;3.95;1.30;;;;;;;14.70;37.50;99973.44;5093173;28;20032;-63
2022/04/19 12:01:04;;;;;;;2.70;1.15;;;;;;;14.63;38.00;99965.13;5092808;28;20103;-64
2022/04/19 12:03:32;;;;;;;4.10;1.48;;;;;;;14.64;38.05;99964.13;5092345;28;20109;-63
2022/04/19 12:06:14;;;;;;;6.00;1.70;;;;;;;14.83;37.69;99965.09;5092565;28;20047;-64
2022/04/19 12:08:49;;;;;;;8.20;1.90;;;;;;;14.98;37.21;99960.06;5093085;28;20114;-64
2022/04/19 12:11:21;;;;;;;8.68;1.55;;;;;;;15.14;37.08;99964.78;5092809;28;20035;-65
2022/04/19 12:13:48;;;;;;;7.63;1.40;;;;;;;15.39;36.10;99965.06;5093045;28;20038;-64
2022/04/19 12:16:34;;;;;;;4.10;1.23;;;;;;;15.68;35.55;99960.47;5092947;28;20036;-66
2022/04/19 12:19:12;;;;;;;3.58;1.40;;;;;;;15.56;35.72;99957.16;5091063;28;20111;-66
2022/04/19 12:21:42;;;;;;;2.50;1.23;;;;;;;15.58;35.96;99966.78;5092579;28;20400;-65
2022/04/19 12:24:19;;;;;;;4.57;1.35;;;;;;;15.88;35.30;99966.56;5092873;28;20040;-66
2022/04/19 12:26:49;;;;;;;3.90;1.42;;;;;;;15.92;35.22;99955.34;5092755;28;20031;-65
2022/04/19 12:29:16;;;;;;;3.35;1.60;;;;;;;15.96;34.96;99968.50;5092913;28;20032;-64
2022/04/19 12:31:46;;;;;;;2.17;1.50;;;;;;;15.96;35.15;99968.50;5092055;28;20035;-63
2022/04/19 12:34:13;;;;;;;3.60;1.70;;;;;;;16.03;34.79;99959.63;5090909;28;20024;-63
2022/04/19 12:36:49;;;;;;;7.50;1.77;;;;;;;16.21;35.07;99973.13;5092136;28;20481;-66